createdAt,value
2022-11-01T00:02:14.318Z,38.90
2022-11-01T00:04:43.093Z,37.90
2022-11-01T00:07:11.738Z,39.77
2022-11-01T00:09:40.436Z,37.87
2022-11-01T00:12:09.466Z,39.40
2022-11-01T00:14:38.162Z,40.47
2022-11-01T00:17:07.098Z,39.47
2022-11-01T00:19:37.159Z,38.83
2022-11-01T00:22:05.829Z,39.83
2022-11-01T00:24:34.456Z,39.77
2022-11-01T00:27:03.143Z,38.17
2022-11-01T00:29:31.887Z,40.80
2022-11-01T00:32:01.696Z,40.23
2022-11-01T00:34:30.374Z,43.87
2022-11-01T00:37:00.469Z,44.23
2022-11-01T00:39:31.463Z,44.60
2022-11-01T00:42:00.250Z,41.10
2022-11-01T00:44:28.942Z,40.67
2022-11-01T00:46:57.645Z,42.00
2022-11-01T00:49:26.380Z,44.00
2022-11-01T00:51:55.046Z,41.00
2022-11-01T00:54:25.332Z,42.00
2022-11-01T00:56:53.991Z,41.37
2022-11-01T00:59:22.711Z,39.00
2022-11-01T01:01:51.584Z,40.33
2022-11-01T01:04:20.501Z,42.77
2022-11-01T01:06:49.185Z,41.10
2022-11-01T01:09:17.921Z,40.33
2022-11-01T01:11:47.983Z,41.80
2022-11-01T01:14:16.657Z,39.47
2022-11-01T01:16:45.330Z,42.50
2022-11-01T01:19:14.013Z,41.60
2022-11-01T01:21:42.694Z,40.47
2022-11-01T01:24:11.446Z,42.47
2022-11-01T01:26:40.161Z,42.20
2022-11-01T01:29:10.279Z,42.17
2022-11-01T01:31:39.040Z,42.07
2022-11-01T01:34:07.675Z,39.97
2022-11-01T01:36:36.394Z,41.57
2022-11-01T01:39:05.488Z,39.90
2022-11-01T01:41:51.711Z,40.80
2022-11-01T01:45:05.802Z,39.53
2022-11-01T01:47:38.016Z,39.70
2022-11-01T01:50:10.934Z,41.77
2022-11-01T01:52:45.390Z,39.10
2022-11-01T01:55:17.545Z,36.33
2022-11-01T01:57:46.815Z,39.33
2022-11-01T02:00:16.195Z,36.73
2022-11-01T02:02:46.936Z,37.80
2022-11-01T02:05:23.713Z,37.70
2022-11-01T02:07:52.702Z,36.73
2022-11-01T02:10:22.547Z,38.07
2022-11-01T02:12:51.443Z,38.10
2022-11-01T02:15:25.017Z,39.83
2022-11-01T02:18:11.075Z,38.80
2022-11-01T02:21:06.225Z,40.07
2022-11-01T02:24:19.908Z,39.50
2022-11-01T02:27:01.307Z,38.43
2022-11-01T02:30:08.107Z,38.77
2022-11-01T02:33:04.702Z,38.40
2022-11-01T02:35:45.088Z,39.97
2022-11-01T02:38:19.973Z,43.00
2022-11-01T02:40:56.471Z,39.60
2022-11-01T02:43:34.779Z,39.87
2022-11-01T02:46:20.066Z,40.50
2022-11-01T02:48:51.758Z,41.67
2022-11-01T02:51:23.781Z,45.57
2022-11-01T02:53:52.590Z,46.57
2022-11-01T02:56:22.955Z,47.83
2022-11-01T02:58:53.853Z,48.00
2022-11-01T03:01:26.243Z,47.33
2022-11-01T03:03:58.310Z,47.17
2022-11-01T03:06:34.606Z,46.40
2022-11-01T03:09:05.789Z,43.73
2022-11-01T03:11:43.452Z,43.53
2022-11-01T03:14:23.675Z,45.90
2022-11-01T03:16:58.694Z,41.90
2022-11-01T03:19:39.006Z,43.67
2022-11-01T03:22:12.414Z,40.77
2022-11-01T03:24:47.767Z,42.53
2022-11-01T03:27:23.129Z,39.23
2022-11-01T03:29:57.340Z,39.43
2022-11-01T03:32:29.959Z,38.50
2022-11-01T03:35:02.801Z,38.50
2022-11-01T03:37:34.152Z,40.17
2022-11-01T03:40:05.845Z,38.50
2022-11-01T03:42:35.445Z,38.73
2022-11-01T03:45:08.643Z,41.30
2022-11-01T03:47:37.529Z,41.50
2022-11-01T03:50:18.783Z,40.40
2022-11-01T03:52:48.081Z,40.87
2022-11-01T03:55:21.468Z,37.37
2022-11-01T03:57:51.150Z,36.80
2022-11-01T04:00:21.886Z,36.63
2022-11-01T04:02:50.982Z,37.77
2022-11-01T04:05:22.380Z,37.07
2022-11-01T04:07:51.741Z,35.87
2022-11-01T04:10:21.578Z,38.83
2022-11-01T04:12:51.794Z,36.73
2022-11-01T04:15:39.687Z,39.40
2022-11-01T04:18:31.911Z,37.07
2022-11-01T04:21:05.136Z,35.57
2022-11-01T04:23:33.948Z,37.43
2022-11-01T04:26:02.767Z,37.97
2022-11-01T04:28:31.394Z,36.57
2022-11-01T04:31:00.045Z,36.87
2022-11-01T04:33:28.722Z,37.77
2022-11-01T04:35:57.328Z,38.97
2022-11-01T04:38:27.415Z,35.60
2022-11-01T04:40:57.245Z,35.60
2022-11-01T04:43:25.885Z,37.93
2022-11-01T04:45:58.228Z,37.00
2022-11-01T04:48:27.849Z,36.73
2022-11-01T04:50:56.502Z,38.17
2022-11-01T04:53:26.516Z,37.60
2022-11-01T04:55:55.224Z,39.00
2022-11-01T04:58:23.930Z,37.93
2022-11-01T05:00:52.640Z,36.10
2022-11-01T05:03:21.683Z,37.53
2022-11-01T05:05:50.306Z,38.13
2022-11-01T05:08:18.998Z,36.07
2022-11-01T05:10:53.664Z,38.90
2022-11-01T05:13:22.521Z,36.20
2022-11-01T05:16:06.513Z,39.37
2022-11-01T05:18:41.153Z,38.60
2022-11-01T05:21:09.788Z,37.03
2022-11-01T05:23:38.419Z,37.30
2022-11-01T05:26:08.529Z,40.80
2022-11-01T05:28:37.187Z,38.57
2022-11-01T05:31:06.618Z,40.47
2022-11-01T05:33:35.253Z,39.80
2022-11-01T05:36:03.909Z,41.30
2022-11-01T05:38:32.632Z,41.00
2022-11-01T05:41:03.617Z,40.67
2022-11-01T05:43:33.818Z,41.00
2022-11-01T05:46:05.530Z,40.10
2022-11-01T05:48:34.366Z,42.97
2022-11-01T05:51:03.020Z,41.80
2022-11-01T05:53:31.653Z,42.27
2022-11-01T05:56:01.060Z,41.37
2022-11-01T05:58:30.970Z,40.10
2022-11-01T06:01:02.428Z,42.47
2022-11-01T06:03:31.414Z,41.43
2022-11-01T06:06:00.561Z,41.23
2022-11-01T06:08:29.349Z,39.70
2022-11-01T06:11:04.075Z,41.23
2022-11-01T06:13:33.033Z,38.60
2022-11-01T06:16:04.541Z,40.80
2022-11-01T06:18:33.473Z,40.10
2022-11-01T06:21:02.136Z,39.50
2022-11-01T06:23:31.011Z,38.67
2022-11-01T06:26:03.397Z,38.40
2022-11-01T06:28:32.477Z,37.07
2022-11-01T06:33:34.330Z,38.17
2022-11-01T06:36:03.531Z,35.97
2022-11-01T06:38:32.439Z,34.43
2022-11-01T06:41:01.148Z,35.20
2022-11-01T06:43:29.823Z,35.63
2022-11-01T06:46:03.232Z,37.77
2022-11-01T06:48:31.897Z,34.17
2022-11-01T06:51:00.543Z,34.47
2022-11-01T06:53:29.241Z,34.50
2022-11-01T06:56:00.403Z,34.10
2022-11-01T06:58:29.421Z,32.70
2022-11-01T07:00:58.181Z,33.23
2022-11-01T07:03:28.322Z,31.77
2022-11-01T07:05:57.098Z,32.83
2022-11-01T07:08:25.731Z,30.17
2022-11-01T07:10:54.360Z,31.17
2022-11-01T07:13:23.062Z,29.60
2022-11-01T07:15:51.724Z,28.03
2022-11-01T07:18:40.948Z,25.80
2022-11-01T07:21:09.782Z,25.57
2022-11-01T07:23:39.243Z,22.47
2022-11-01T07:26:07.856Z,25.23
2022-11-01T07:28:40.268Z,22.67
2022-11-01T07:31:09.028Z,23.50
2022-11-01T07:33:39.600Z,24.57
2022-11-01T07:36:09.225Z,24.83
2022-11-01T07:38:38.642Z,24.13
2022-11-01T07:41:07.398Z,23.47
2022-11-01T07:43:36.906Z,22.37
2022-11-01T07:46:07.534Z,21.67
2022-11-01T07:48:37.261Z,21.03
2022-11-01T07:51:09.838Z,21.03
2022-11-01T07:53:38.590Z,20.60
2022-11-01T07:56:09.015Z,19.80
2022-11-01T07:58:37.730Z,19.67
2022-11-01T08:01:08.955Z,18.40
2022-11-01T08:03:37.746Z,19.43
2022-11-01T08:06:08.326Z,20.17
2022-11-01T08:08:37.100Z,18.97
2022-11-01T08:11:07.411Z,20.97
2022-11-01T08:13:37.127Z,20.30
2022-11-01T08:16:06.286Z,19.97
2022-11-01T08:18:34.813Z,19.77
2022-11-01T08:21:03.451Z,19.67
2022-11-01T08:23:33.513Z,20.20
2022-11-01T08:26:03.120Z,19.93
2022-11-01T08:28:32.080Z,20.17
2022-11-01T08:31:00.662Z,19.67
2022-11-01T08:33:29.357Z,20.00
2022-11-01T08:35:58.463Z,19.60
2022-11-01T08:38:27.587Z,19.17
2022-11-01T08:40:57.824Z,19.20
2022-11-01T08:43:26.439Z,20.00
2022-11-01T08:45:55.150Z,19.57
2022-11-01T08:48:23.833Z,19.47
2022-11-01T08:50:52.637Z,19.43
2022-11-01T08:53:21.576Z,19.90
2022-11-01T08:55:57.897Z,20.80
2022-11-01T08:58:26.664Z,21.07
2022-11-01T09:00:55.417Z,20.73
2022-11-01T09:03:24.233Z,19.17
2022-11-01T09:05:53.287Z,20.80
2022-11-01T09:08:21.860Z,19.97
2022-11-01T09:10:50.677Z,19.70
2022-11-01T09:13:20.980Z,19.20
2022-11-01T09:15:49.664Z,19.10
2022-11-01T09:18:18.519Z,19.20
2022-11-01T09:20:54.619Z,19.93
2022-11-01T09:23:23.385Z,17.07
2022-11-01T09:25:52.271Z,18.17
2022-11-01T09:28:22.431Z,18.03
2022-11-01T09:31:01.413Z,18.17
2022-11-01T09:33:40.041Z,16.50
2022-11-01T09:36:09.292Z,15.63
2022-11-01T09:38:38.029Z,14.93
2022-11-01T09:41:14.282Z,14.67
2022-11-01T09:43:46.688Z,12.90
2022-11-01T09:48:50.216Z,14.47
2022-11-01T09:51:22.600Z,14.17
2022-11-01T09:53:54.214Z,12.23
2022-11-01T09:56:30.407Z,13.27
2022-11-01T09:59:08.967Z,12.83
2022-11-01T10:01:46.700Z,14.10
2022-11-01T10:04:46.817Z,14.17
2022-11-01T10:07:24.084Z,13.93
2022-11-01T10:10:00.387Z,14.77
2022-11-01T10:12:49.870Z,14.63
2022-11-01T10:15:36.775Z,14.03
2022-11-01T10:18:19.523Z,15.47
2022-11-01T10:20:49.037Z,13.83
2022-11-01T10:23:19.403Z,13.57
2022-11-01T10:25:54.962Z,14.40
2022-11-01T10:28:33.189Z,13.70
2022-11-01T10:31:07.083Z,13.10
2022-11-01T10:33:39.781Z,13.40
2022-11-01T10:36:14.983Z,12.33
2022-11-01T10:41:42.457Z,12.07
2022-11-01T10:44:18.167Z,11.90
2022-11-01T10:46:50.547Z,10.20
2022-11-01T10:49:30.888Z,11.20
2022-11-01T10:52:13.162Z,10.67
2022-11-01T10:54:45.164Z,9.90
2022-11-01T10:57:21.988Z,10.97
2022-11-01T10:59:50.734Z,10.50
2022-11-01T11:02:28.880Z,9.43
2022-11-01T11:04:58.671Z,9.90
2022-11-01T11:07:31.172Z,10.00
2022-11-01T11:12:34.881Z,8.63
2022-11-01T11:15:12.082Z,9.10
2022-11-01T11:17:45.907Z,9.97
2022-11-01T11:20:16.622Z,8.83
2022-11-01T11:22:45.437Z,9.30
2022-11-01T11:25:19.145Z,8.40
2022-11-01T11:27:49.988Z,8.17
2022-11-01T11:30:29.265Z,8.80
2022-11-01T11:33:02.191Z,9.00
2022-11-01T11:35:33.015Z,9.10
2022-11-01T11:38:04.305Z,8.37
2022-11-01T11:40:46.000Z,8.27
2022-11-01T11:43:24.663Z,8.67
2022-11-01T11:46:08.120Z,8.17
2022-11-01T11:48:48.467Z,8.40
2022-11-01T11:51:17.791Z,8.90
2022-11-01T11:54:05.278Z,8.87
2022-11-01T11:56:34.067Z,8.90
2022-11-01T11:59:08.799Z,9.37
2022-11-01T12:01:37.991Z,10.93
2022-11-01T12:04:15.927Z,9.30
2022-11-01T12:06:46.785Z,10.97
2022-11-01T12:09:44.623Z,9.40
2022-11-01T12:12:20.950Z,10.07
2022-11-01T12:14:49.933Z,10.00
2022-11-01T12:17:29.382Z,10.40
2022-11-01T12:20:11.265Z,10.00
2022-11-01T12:22:42.858Z,10.03
2022-11-01T12:25:16.569Z,10.27
2022-11-01T12:27:58.003Z,9.57
2022-11-01T12:30:29.945Z,8.80
2022-11-01T12:33:00.837Z,9.47
2022-11-01T12:35:34.099Z,8.53
2022-11-01T12:38:35.180Z,9.10
2022-11-01T12:41:19.644Z,8.80
2022-11-01T12:44:03.845Z,7.93
2022-11-01T12:46:38.833Z,7.83
2022-11-01T12:49:13.165Z,7.20
2022-11-01T12:51:49.285Z,7.20
2022-11-01T12:54:22.634Z,6.70
2022-11-01T12:56:51.360Z,7.77
2022-11-01T12:59:25.548Z,6.60
2022-11-01T13:02:02.909Z,6.87
2022-11-01T13:04:37.598Z,6.87
2022-11-01T13:07:23.741Z,6.20
2022-11-01T13:10:05.433Z,5.73
2022-11-01T13:12:45.466Z,6.07
2022-11-01T13:15:22.926Z,6.07
2022-11-01T13:18:04.404Z,5.53
2022-11-01T13:20:40.760Z,6.30
2022-11-01T13:23:22.190Z,5.87
2022-11-01T13:25:56.984Z,5.50
2022-11-01T13:28:49.152Z,6.10
2022-11-01T13:31:30.514Z,5.37
2022-11-01T13:34:11.556Z,6.77
2022-11-01T13:36:46.670Z,5.77
2022-11-01T13:39:26.450Z,6.10
2022-11-01T13:42:01.305Z,5.97
2022-11-01T13:44:35.176Z,5.77
2022-11-01T13:47:36.142Z,6.00
2022-11-01T13:50:46.828Z,6.47
2022-11-01T13:53:25.804Z,5.50
2022-11-01T13:56:01.216Z,6.73
2022-11-01T13:58:33.792Z,5.87
2022-11-01T14:01:35.985Z,5.60
2022-11-01T14:04:25.083Z,7.50
2022-11-01T14:07:14.683Z,6.67
2022-11-01T14:09:55.090Z,10.40
2022-11-01T14:12:45.049Z,11.40
2022-11-01T14:16:04.221Z,13.10
2022-11-01T14:19:20.462Z,7.60
2022-11-01T14:21:54.487Z,8.37
2022-11-01T14:24:35.823Z,8.10
2022-11-01T14:27:37.751Z,7.40
2022-11-01T14:30:20.956Z,6.73
2022-11-01T14:32:57.470Z,7.80
2022-11-01T14:35:31.034Z,9.17
2022-11-01T14:38:03.151Z,8.00
2022-11-01T14:40:35.782Z,8.07
2022-11-01T14:43:13.847Z,7.67
2022-11-01T14:45:48.064Z,8.53
2022-11-01T14:48:22.626Z,9.60
2022-11-01T14:50:59.523Z,8.57
2022-11-01T14:53:36.738Z,10.00
2022-11-01T14:56:15.877Z,9.50
2022-11-01T14:58:45.942Z,8.67
2022-11-01T15:01:23.797Z,9.77
2022-11-01T15:04:07.443Z,10.40
2022-11-01T15:06:44.899Z,10.53
2022-11-01T15:09:27.692Z,9.03
2022-11-01T15:12:07.951Z,9.13
2022-11-01T15:14:44.397Z,10.77
2022-11-01T15:17:24.387Z,11.10
2022-11-01T15:19:55.972Z,10.33
2022-11-01T15:22:28.129Z,10.03
2022-11-01T15:25:00.163Z,11.03
2022-11-01T15:27:36.804Z,11.33
2022-11-01T15:30:07.867Z,10.47
2022-11-01T15:32:38.254Z,11.60
2022-11-01T15:35:22.711Z,11.33
2022-11-01T15:37:53.490Z,11.90
2022-11-01T15:40:30.403Z,11.63
2022-11-01T15:42:59.842Z,11.10
2022-11-01T15:45:31.560Z,11.33
2022-11-01T15:48:06.973Z,12.07
2022-11-01T15:50:38.792Z,13.33
2022-11-01T15:53:11.606Z,10.23
2022-11-01T15:55:44.997Z,11.27
2022-11-01T15:58:18.992Z,12.50
2022-11-01T16:00:55.492Z,12.30
2022-11-01T16:03:30.928Z,13.13
2022-11-01T16:06:06.619Z,12.33
2022-11-01T16:08:40.026Z,12.63
2022-11-01T16:11:09.843Z,11.43
2022-11-01T16:13:41.984Z,13.97
2022-11-01T16:16:12.291Z,12.40
2022-11-01T16:18:45.932Z,12.37
2022-11-01T16:21:29.962Z,13.87
2022-11-01T16:24:09.467Z,12.27
2022-11-01T16:26:54.906Z,12.53
2022-11-01T16:29:43.222Z,13.30
2022-11-01T16:32:20.299Z,12.40
2022-11-01T16:34:51.074Z,12.13
2022-11-01T16:37:25.175Z,14.90
2022-11-01T16:39:55.032Z,13.77
2022-11-01T16:42:25.343Z,13.87
2022-11-01T16:44:58.059Z,14.57
2022-11-01T16:47:27.492Z,13.27
2022-11-01T16:49:58.061Z,12.33
2022-11-01T16:52:27.313Z,12.73
2022-11-01T16:54:56.123Z,12.90
2022-11-01T16:57:27.868Z,13.70
2022-11-01T16:59:57.558Z,12.97
2022-11-01T17:02:33.536Z,13.10
2022-11-01T17:05:07.958Z,12.70
2022-11-01T17:07:37.303Z,13.50
2022-11-01T17:10:18.463Z,14.97
2022-11-01T17:12:48.052Z,13.27
2022-11-01T17:15:18.170Z,14.70
2022-11-01T17:17:50.691Z,13.70
2022-11-01T17:20:25.298Z,14.40
2022-11-01T17:22:57.387Z,13.33
2022-11-01T17:25:29.813Z,13.40
2022-11-01T17:27:58.824Z,14.77
2022-11-01T17:30:28.061Z,14.80
2022-11-01T17:32:57.881Z,14.33
2022-11-01T17:35:28.129Z,14.20
2022-11-01T17:37:57.482Z,14.60
2022-11-01T17:40:26.874Z,15.33
2022-11-01T17:42:56.369Z,14.53
2022-11-01T17:45:28.331Z,14.70
2022-11-01T17:47:58.050Z,15.10
2022-11-01T17:50:30.279Z,14.70
2022-11-01T17:52:59.492Z,14.97
2022-11-01T17:55:28.838Z,14.80
2022-11-01T17:57:58.106Z,15.43
2022-11-01T18:00:27.474Z,15.00
2022-11-01T18:02:56.800Z,14.40
2022-11-01T18:05:26.323Z,17.67
2022-11-01T18:08:02.352Z,15.17
2022-11-01T18:10:40.424Z,15.90
2022-11-01T18:13:26.784Z,14.00
2022-11-01T18:16:03.175Z,16.43
2022-11-01T18:18:49.574Z,16.43
2022-11-01T18:21:27.762Z,17.53
2022-11-01T18:24:01.284Z,15.83
2022-11-01T18:26:31.458Z,16.57
2022-11-01T18:29:04.491Z,16.73
2022-11-01T18:31:39.445Z,17.90
2022-11-01T18:34:14.408Z,16.67
2022-11-01T18:36:53.410Z,17.90
2022-11-01T18:39:31.064Z,15.70
2022-11-01T18:42:02.453Z,17.33
2022-11-01T18:44:32.783Z,17.80
2022-11-01T18:47:07.794Z,16.03
2022-11-01T18:49:36.876Z,17.27
2022-11-01T18:52:10.005Z,18.17
2022-11-01T18:54:49.980Z,19.07
2022-11-01T18:57:23.962Z,18.70
2022-11-01T18:59:55.252Z,17.57
2022-11-01T19:02:27.824Z,17.83
2022-11-01T19:05:11.426Z,18.30
2022-11-01T19:08:09.449Z,18.60
2022-11-01T19:10:38.178Z,18.50
2022-11-01T19:13:13.764Z,18.60
2022-11-01T19:15:43.851Z,19.40
2022-11-01T19:18:20.209Z,19.57
2022-11-01T19:20:53.671Z,18.00
2022-11-01T19:23:26.808Z,17.90
2022-11-01T19:25:57.848Z,18.33
2022-11-01T19:28:29.465Z,19.67
2022-11-01T19:31:08.731Z,19.17
2022-11-01T19:33:40.767Z,18.40
2022-11-01T19:36:19.987Z,17.70
2022-11-01T19:38:49.611Z,18.30
2022-11-01T19:41:24.928Z,19.90
2022-11-01T19:43:56.722Z,19.13
2022-11-01T19:46:26.005Z,18.70
2022-11-01T19:48:55.844Z,17.40
2022-11-01T19:51:27.424Z,18.30
2022-11-01T19:53:57.111Z,16.53
2022-11-01T19:56:30.453Z,18.63
2022-11-01T19:59:00.967Z,18.20
2022-11-01T20:01:41.618Z,19.67
2022-11-01T20:04:27.039Z,18.23
2022-11-01T20:07:01.687Z,19.17
2022-11-01T20:09:32.418Z,20.67
2022-11-01T20:12:03.147Z,19.90
2022-11-01T20:14:36.207Z,21.67
2022-11-01T20:17:05.272Z,20.43
2022-11-01T20:19:34.717Z,21.70
2022-11-01T20:22:04.120Z,20.43
2022-11-01T20:24:33.439Z,19.37
2022-11-01T20:27:05.963Z,19.13
2022-11-01T20:29:35.323Z,19.73
2022-11-01T20:32:12.011Z,21.27
2022-11-01T20:34:55.316Z,21.80
2022-11-01T20:37:44.283Z,20.93
2022-11-01T20:40:14.390Z,20.70
2022-11-01T20:42:45.200Z,21.20
2022-11-01T20:45:15.032Z,21.17
2022-11-01T20:47:49.800Z,21.97
2022-11-01T20:50:20.295Z,19.57
2022-11-01T20:52:49.697Z,18.87
2022-11-01T20:55:18.884Z,20.40
2022-11-01T20:57:49.389Z,19.50
2022-11-01T21:00:23.932Z,20.20
2022-11-01T21:02:53.505Z,19.67
2022-11-01T21:05:28.117Z,19.57
2022-11-01T21:08:10.836Z,18.97
2022-11-01T21:10:41.918Z,22.90
2022-11-01T21:13:26.968Z,19.40
2022-11-01T21:15:57.613Z,18.87
2022-11-01T21:18:44.861Z,21.10
2022-11-01T21:21:36.171Z,19.50
2022-11-01T21:24:33.596Z,19.70
2022-11-01T21:27:35.912Z,21.10
2022-11-01T21:30:24.733Z,20.53
2022-11-01T21:32:59.278Z,18.27
2022-11-01T21:35:44.300Z,19.53
2022-11-01T21:38:41.593Z,20.83
2022-11-01T21:41:31.985Z,19.70
2022-11-01T21:44:20.723Z,20.70
2022-11-01T21:46:56.676Z,19.50
2022-11-01T21:49:33.628Z,19.27
2022-11-01T21:52:06.214Z,19.33
2022-11-01T21:54:38.670Z,19.10
2022-11-01T21:57:11.698Z,21.13
2022-11-01T21:59:41.972Z,20.90
2022-11-01T22:02:18.624Z,22.27
2022-11-01T22:04:47.763Z,20.07
2022-11-01T22:07:16.815Z,19.43
2022-11-01T22:09:45.559Z,20.20
2022-11-01T22:12:14.228Z,22.03
2022-11-01T22:14:42.900Z,22.90
2022-11-01T22:17:11.658Z,21.60
2022-11-01T22:19:41.854Z,23.87
2022-11-01T22:22:11.292Z,23.27
2022-11-01T22:24:40.331Z,20.00
2022-11-01T22:27:09.057Z,22.37
2022-11-01T22:29:37.773Z,21.90
2022-11-01T22:32:06.972Z,19.97
2022-11-01T22:34:35.757Z,20.97
2022-11-01T22:37:12.795Z,20.50
2022-11-01T22:39:42.377Z,21.97
2022-11-01T22:42:13.786Z,20.50
2022-11-01T22:44:46.082Z,19.67
2022-11-01T22:47:23.987Z,23.70
2022-11-01T22:49:54.945Z,22.10
2022-11-01T22:52:33.036Z,20.70
2022-11-01T22:55:05.979Z,22.73
2022-11-01T22:57:37.719Z,21.97
2022-11-01T23:00:28.548Z,22.00
2022-11-01T23:03:02.535Z,18.27
2022-11-01T23:05:31.741Z,20.53
2022-11-01T23:08:14.872Z,20.63
2022-11-01T23:10:49.664Z,21.37
2022-11-01T23:13:41.410Z,21.90
2022-11-01T23:16:25.039Z,21.40
2022-11-01T23:18:55.117Z,22.80
2022-11-01T23:21:24.082Z,22.33
2022-11-01T23:23:54.186Z,20.90
2022-11-01T23:26:25.284Z,18.63
2022-11-01T23:28:56.119Z,19.43
2022-11-01T23:31:26.673Z,22.50
2022-11-01T23:33:55.677Z,21.03
2022-11-01T23:36:27.146Z,19.87
2022-11-01T23:41:36.206Z,20.90
2022-11-01T23:44:14.506Z,20.90
2022-11-01T23:46:43.398Z,22.20
2022-11-01T23:49:19.373Z,20.80
2022-11-01T23:51:48.377Z,21.23
2022-11-01T23:54:25.431Z,21.90
2022-11-01T23:56:55.881Z,20.47
2022-11-01T23:59:24.788Z,20.50
